Terminal Aerodrome Forecast
Issued by NWS Wilmington, OH

Home | Current Version | Previous Version | Text Only | Print | Product List | Glossary On
Versions: 1 2 3 4 5 6 7 8 9 10 11 12 13 14 15 16 17 18 19 20 21 22 23 24 25
000
FTUS41 KILN 242100 AAA
TAFCMH
TAF AMD
KCMH 242101Z 2421/2518 24020G32KT P6SM SCT025 OVC035
     FM250400 24013G22KT P6SM OVC035
     FM250700 24011KT P6SM OVC035
     FM251000 24011KT P6SM OVC025=

USA.gov is the U.S. government's official web portal to all federal, state and local government web resources and services.